Time;durP1;ratioP1;P1;durP2;ratioP2;P2;SDS_P1;SDS_P2;PMS_P1;PMS_P2;Temp;Humidity;BMP_temperature;BMP_pressure;BME280_temperature;BME280_humidity;BME280_pressure;Samples;Min_cycle;Max_cycle;Signal;HPM_P1;HPM_P2
2022/01/21 00:01:40;;;;;;;6.20;1.40;;;;;;;6.56;100.00;103118.75;5125794;27;20061;-87
2022/01/21 00:04:09;;;;;;;7.90;1.95;;;;;;;6.60;100.00;103117.09;5137521;27;20449;-87
2022/01/21 00:06:38;;;;;;;8.52;2.08;;;;;;;6.43;100.00;103101.19;5136823;27;20046;-87
2022/01/21 00:09:05;;;;;;;5.78;1.50;;;;;;;6.60;100.00;103102.34;5136829;27;20038;-87
2022/01/21 00:11:34;;;;;;;6.25;1.40;;;;;;;6.62;100.00;103110.19;5119139;27;20051;-87
2022/01/21 00:14:01;;;;;;;6.05;1.50;;;;;;;6.69;100.00;103103.34;5131028;27;20055;-88
2022/01/21 00:16:29;;;;;;;7.93;1.83;;;;;;;6.65;100.00;103065.97;5154150;27;20053;-88
2022/01/21 00:19:03;;;;;;;8.68;1.40;;;;;;;6.80;100.00;103101.81;5156067;27;20629;-87
2022/01/21 00:32:54;;;;;;;2.72;1.20;;;;;;;7.15;100.00;103102.34;5090069;28;20514;-87
2022/01/21 00:35:22;;;;;;;3.47;1.23;;;;;;;7.32;100.00;103105.19;5074521;28;20612;-87
2022/01/21 00:37:49;;;;;;;2.42;0.93;;;;;;;7.35;100.00;103099.16;5100265;27;20385;-87
2022/01/21 00:40:21;;;;;;;3.40;1.30;;;;;;;7.23;100.00;103102.47;5126575;27;20040;-88
2022/01/21 00:45:17;;;;;;;6.47;1.40;;;;;;;7.14;100.00;103086.69;5113512;28;20055;-87
2022/01/21 00:47:45;;;;;;;2.58;1.15;;;;;;;7.48;100.00;103100.19;5121326;27;20054;-88
2022/01/21 00:50:13;;;;;;;4.30;1.30;;;;;;;7.20;100.00;103076.34;5134179;27;20044;-88
2022/01/21 00:52:40;;;;;;;3.97;1.20;;;;;;;7.44;100.00;103091.47;5115179;27;20047;-88
2022/01/21 00:55:08;;;;;;;3.30;1.30;;;;;;;7.41;100.00;103078.38;5134964;27;20043;-88
2022/01/21 00:57:35;;;;;;;3.22;1.02;;;;;;;7.21;100.00;103072.91;5116668;27;20048;-88
2022/01/21 01:00:05;;;;;;;2.25;1.10;;;;;;;7.34;100.00;103084.38;5118190;27;20136;-89
2022/01/21 01:02:32;;;;;;;4.18;1.30;;;;;;;7.12;100.00;103071.03;5132946;27;20053;-88
2022/01/21 01:04:59;;;;;;;6.28;1.33;;;;;;;6.99;100.00;103064.78;5116350;27;20046;-88
2022/01/21 01:07:26;;;;;;;2.78;1.10;;;;;;;6.91;100.00;103062.91;5117501;27;20051;-88
2022/01/21 01:09:55;;;;;;;3.67;1.10;;;;;;;7.04;100.00;103068.31;5133545;27;20051;-88
2022/01/21 01:20:25;;;;;;;3.42;1.30;;;;;;;6.86;100.00;103073.25;5129257;27;20046;-88
2022/01/21 01:28:05;;;;;;;2.17;1.08;;;;;;;6.77;100.00;103052.28;5149548;27;20054;-86
2022/01/21 01:30:34;;;;;;;5.70;1.10;;;;;;;6.74;100.00;103058.31;5127274;28;20495;-88
2022/01/21 01:33:02;;;;;;;2.95;1.20;;;;;;;6.84;100.00;103049.78;5115562;28;20043;-88
2022/01/21 01:35:32;;;;;;;4.10;1.08;;;;;;;6.57;100.00;103044.16;5127738;27;20688;-88
2022/01/21 01:38:41;;;;;;;4.03;1.50;;;;;;;6.51;100.00;103049.28;5146588;27;20047;-88
2022/01/21 01:41:11;;;;;;;2.40;1.08;;;;;;;6.41;100.00;103071.66;5119407;28;20044;-87
2022/01/21 01:52:14;;;;;;;2.13;1.23;;;;;;;6.02;100.00;103059.69;5029525;28;20136;-88
2022/01/21 01:54:47;;;;;;;3.88;1.10;;;;;;;5.93;100.00;103044.75;5097962;28;20055;-88
2022/01/21 01:57:14;;;;;;;2.70;1.15;;;;;;;5.98;100.00;103044.88;5094977;28;20500;-88
2022/01/21 01:59:41;;;;;;;4.85;1.40;;;;;;;5.85;100.00;103062.81;5098923;28;20092;-88
2022/01/21 02:02:14;;;;;;;4.25;1.30;;;;;;;5.87;100.00;103060.25;5115962;28;20638;-88
2022/01/21 02:04:42;;;;;;;3.15;1.20;;;;;;;6.02;100.00;103065.78;5115122;28;20051;-88
2022/01/21 02:07:10;;;;;;;4.22;1.30;;;;;;;5.91;100.00;103054.25;5133335;28;20469;-88
2022/01/21 02:09:37;;;;;;;4.05;1.33;;;;;;;5.93;100.00;103046.47;5116455;27;20045;-88
2022/01/21 02:12:06;;;;;;;4.00;1.17;;;;;;;5.69;100.00;103034.78;5094895;28;20405;-88
2022/01/21 02:14:38;;;;;;;3.55;1.20;;;;;;;5.71;100.00;103043.47;5152131;27;20494;-88
2022/01/21 02:17:24;;;;;;;4.88;1.38;;;;;;;5.67;100.00;103037.34;5135279;27;20058;-88
2022/01/21 02:22:40;;;;;;;4.13;1.20;;;;;;;5.64;100.00;103028.59;5115439;28;20051;-87
2022/01/21 02:25:26;;;;;;;2.22;1.10;;;;;;;5.75;100.00;103034.88;5114658;28;20050;-86
2022/01/21 02:27:57;;;;;;;3.85;1.13;;;;;;;5.64;100.00;103016.47;5133316;28;20134;-87
2022/01/21 02:30:24;;;;;;;3.15;1.17;;;;;;;5.51;100.00;103028.38;5114213;28;20036;-87
2022/01/21 02:32:55;;;;;;;4.65;2.47;;;;;;;5.75;100.00;103023.63;5114897;28;20401;-89
2022/01/21 02:35:23;;;;;;;4.55;1.17;;;;;;;5.53;100.00;103012.81;5143633;27;20046;-88
2022/01/21 02:37:50;;;;;;;3.10;1.15;;;;;;;5.59;100.00;103015.50;5138959;27;20077;-88
2022/01/21 02:40:18;;;;;;;4.13;1.48;;;;;;;5.55;100.00;103002.44;5131590;27;20043;-87
2022/01/21 02:42:45;;;;;;;2.75;1.35;;;;;;;5.70;100.00;103007.91;5135915;27;20057;-87
2022/01/21 02:45:14;;;;;;;4.53;1.23;;;;;;;5.48;100.00;102991.91;5118113;27;20047;-88
2022/01/21 02:47:44;;;;;;;3.85;1.20;;;;;;;5.51;100.00;103010.19;5136679;27;20051;-88
2022/01/21 02:50:11;;;;;;;2.55;1.02;;;;;;;5.59;100.00;102992.13;5117571;27;20039;-88
2022/01/21 02:52:52;;;;;;;3.47;1.20;;;;;;;5.44;100.00;102989.25;5118495;27;20043;-88
2022/01/21 02:55:19;;;;;;;2.30;1.15;;;;;;;5.47;100.00;102977.19;5136840;27;20066;-88
2022/01/21 02:57:46;;;;;;;4.60;1.67;;;;;;;5.66;100.00;102985.31;5118710;27;20035;-88
2022/01/21 03:00:13;;;;;;;2.83;1.27;;;;;;;5.55;100.00;102985.13;5129729;27;20381;-88
2022/01/21 03:02:40;;;;;;;2.00;1.00;;;;;;;5.29;100.00;102980.31;5137712;27;20042;-89
2022/01/21 03:05:13;;;;;;;3.25;1.17;;;;;;;5.35;100.00;102974.34;5136045;27;20407;-88
2022/01/21 03:07:40;;;;;;;4.00;1.38;;;;;;;5.64;100.00;102980.09;5138969;27;20093;-88
2022/01/21 03:10:08;;;;;;;5.65;1.13;;;;;;;5.47;100.00;102960.69;5123384;27;20047;-88
2022/01/21 03:12:34;;;;;;;3.88;1.10;;;;;;;5.40;100.00;102971.81;5147343;27;20380;-88
2022/01/21 03:15:01;;;;;;;1.75;1.05;;;;;;;5.52;100.00;102974.66;5117617;27;20050;-88
2022/01/21 03:17:28;;;;;;;5.28;1.80;;;;;;;5.53;100.00;102972.97;5136395;27;20138;-87
2022/01/21 03:19:54;;;;;;;4.43;1.13;;;;;;;5.46;100.00;102970.22;5117656;27;20116;-88
2022/01/21 03:22:21;;;;;;;4.90;1.30;;;;;;;5.42;100.00;102962.31;5118505;27;20047;-88
2022/01/21 03:24:48;;;;;;;2.47;1.00;;;;;;;5.32;100.00;102958.69;5118314;27;20051;-88
2022/01/21 03:27:16;;;;;;;3.10;1.27;;;;;;;5.30;100.00;102952.59;5117651;27;20047;-88
2022/01/21 03:29:44;;;;;;;3.08;1.48;;;;;;;5.26;100.00;102956.00;5115088;27;20047;-88
2022/01/21 03:32:11;;;;;;;3.00;1.55;;;;;;;5.43;100.00;102961.50;5099401;27;20052;-87
2022/01/21 03:34:38;;;;;;;1.85;1.05;;;;;;;5.26;100.00;102938.66;5135285;27;20126;-87
2022/01/21 03:37:05;;;;;;;1.80;0.98;;;;;;;5.28;100.00;102942.16;5117142;27;20054;-87
2022/01/21 03:39:33;;;;;;;3.55;1.20;;;;;;;5.41;100.00;102958.88;5131303;27;20047;-88
2022/01/21 03:41:59;;;;;;;2.85;1.20;;;;;;;5.20;100.00;102941.13;5129341;27;20532;-88
2022/01/21 03:44:26;;;;;;;2.70;1.10;;;;;;;5.31;100.00;102937.03;5151688;27;20042;-87
2022/01/21 03:46:53;;;;;;;10.52;1.33;;;;;;;5.30;100.00;102926.63;5137911;27;20058;-88
2022/01/21 03:49:20;;;;;;;1.20;0.90;;;;;;;5.38;100.00;102925.03;5120030;27;20043;-87
2022/01/21 03:51:47;;;;;;;3.30;1.20;;;;;;;5.42;100.00;102926.84;5116525;27;20051;-87
2022/01/21 03:54:14;;;;;;;3.40;1.20;;;;;;;5.25;100.00;102923.06;5116701;27;20047;-87
2022/01/21 03:56:40;;;;;;;3.92;1.25;;;;;;;5.21;100.00;102918.66;5136762;27;20065;-87
2022/01/21 03:59:07;;;;;;;1.92;1.10;;;;;;;5.28;100.00;102920.53;5116930;27;20461;-87
2022/01/21 04:01:34;;;;;;;1.95;1.02;;;;;;;5.36;100.00;102934.50;5126651;27;20560;-87
2022/01/21 04:04:02;;;;;;;3.40;1.17;;;;;;;5.34;100.00;102933.63;5134556;27;20481;-88
2022/01/21 04:06:29;;;;;;;2.42;1.15;;;;;;;5.10;100.00;102918.44;5151744;27;20053;-87
2022/01/21 04:08:55;;;;;;;3.60;1.10;;;;;;;5.12;100.00;102911.56;5152173;27;20039;-88
2022/01/21 04:11:22;;;;;;;2.13;1.10;;;;;;;5.03;100.00;102911.34;5116023;27;20051;-88
2022/01/21 04:13:49;;;;;;;2.17;1.10;;;;;;;5.11;100.00;102915.84;5126597;27;20043;-88
2022/01/21 04:16:16;;;;;;;4.80;1.17;;;;;;;5.11;100.00;102915.84;5155923;27;20414;-88
2022/01/21 04:18:42;;;;;;;1.52;1.00;;;;;;;5.12;100.00;102906.38;5125561;27;20128;-88
2022/01/21 04:21:09;;;;;;;5.65;1.38;;;;;;;4.99;100.00;102900.03;5115601;28;20059;-88
2022/01/21 04:23:36;;;;;;;4.70;1.40;;;;;;;4.98;100.00;102900.88;5142751;27;20077;-88
2022/01/21 04:26:03;;;;;;;2.75;1.17;;;;;;;5.07;100.00;102905.41;5136947;27;20056;-87
2022/01/21 04:28:30;;;;;;;4.35;1.30;;;;;;;5.12;100.00;102909.81;5137293;27;20046;-87
2022/01/21 04:30:58;;;;;;;1.85;1.10;;;;;;;5.02;100.00;102907.03;5124682;27;20043;-88
2022/01/21 04:33:25;;;;;;;3.22;1.30;;;;;;;5.07;100.00;102913.19;5116827;27;20069;-88
2022/01/21 04:35:52;;;;;;;4.30;1.30;;;;;;;4.97;100.00;102900.84;5126284;27;20054;-88
2022/01/21 04:38:21;;;;;;;5.22;1.25;;;;;;;4.89;100.00;102888.59;5120096;27;20059;-88
2022/01/21 04:41:03;;;;;;;2.38;1.08;;;;;;;4.89;100.00;102909.34;5115144;28;20469;-88
2022/01/21 04:49:00;;;;;;;2.45;1.20;;;;;;;4.50;100.00;102899.88;5134407;27;20066;-88
2022/01/21 04:51:29;;;;;;;3.00;1.38;;;;;;;4.51;100.00;102893.81;5115051;27;20046;-88
2022/01/21 04:53:56;;;;;;;2.30;1.13;;;;;;;4.35;100.00;102894.34;5132978;27;20487;-88
2022/01/21 04:56:23;;;;;;;2.60;1.23;;;;;;;4.23;100.00;102891.47;5130423;27;20050;-88
2022/01/21 04:58:50;;;;;;;3.25;1.30;;;;;;;4.38;100.00;102902.19;5135976;27;20060;-88
2022/01/21 05:01:17;;;;;;;4.40;1.10;;;;;;;4.26;100.00;102896.72;5109618;27;20051;-87
2022/01/21 05:03:46;;;;;;;4.10;1.45;;;;;;;4.40;100.00;102891.84;5128617;27;20468;-88
2022/01/21 05:06:12;;;;;;;2.35;1.30;;;;;;;4.64;100.00;102896.69;5143753;27;20051;-88
2022/01/21 05:11:06;;;;;;;3.25;1.02;;;;;;;4.77;100.00;102909.09;5133959;27;20062;-88
2022/01/21 05:13:40;;;;;;;2.28;1.10;;;;;;;4.85;100.00;102915.34;5113237;27;20053;-87
2022/01/21 05:16:29;;;;;;;3.47;1.10;;;;;;;4.73;100.00;102891.72;5115567;27;20039;-88
2022/01/21 05:18:56;;;;;;;1.63;1.10;;;;;;;4.96;100.00;102905.19;5121587;27;20493;-87
2022/01/21 05:21:23;;;;;;;2.58;1.20;;;;;;;4.74;100.00;102894.31;5112183;28;20396;-87
2022/01/21 05:23:50;;;;;;;1.30;1.00;;;;;;;4.71;100.00;102893.38;5110296;27;20481;-87
2022/01/21 05:26:17;;;;;;;1.23;1.00;;;;;;;4.74;100.00;102906.44;5116466;27;20047;-87
2022/01/21 05:28:43;;;;;;;2.05;1.20;;;;;;;4.46;100.00;102853.97;5111351;27;20043;-86
2022/01/21 05:31:10;;;;;;;2.33;1.13;;;;;;;4.77;100.00;102903.03;5132584;28;20058;-87
2022/01/21 05:33:38;;;;;;;1.45;1.00;;;;;;;4.62;100.00;102883.72;5105205;28;20378;-87
2022/01/21 05:36:04;;;;;;;3.25;1.20;;;;;;;4.52;100.00;102881.75;5133565;28;20508;-87
2022/01/21 05:38:31;;;;;;;2.80;1.13;;;;;;;4.47;100.00;102883.38;5133293;28;20054;-87
2022/01/21 05:40:58;;;;;;;1.77;1.02;;;;;;;4.45;100.00;102890.25;5132706;28;20047;-87
2022/01/21 05:43:25;;;;;;;4.28;1.20;;;;;;;4.46;100.00;102877.31;5114119;28;20043;-87
2022/01/21 05:48:37;;;;;;;1.42;0.90;;;;;;;4.25;100.00;102882.88;5125730;27;20043;-87
2022/01/21 05:51:04;;;;;;;3.22;1.20;;;;;;;4.04;100.00;102867.69;5115087;28;20043;-88
2022/01/21 05:53:31;;;;;;;2.40;1.20;;;;;;;4.03;100.00;102857.28;5131903;28;20065;-87
2022/01/21 05:56:01;;;;;;;2.88;1.10;;;;;;;3.94;100.00;102858.81;5114666;28;20039;-87
2022/01/21 05:58:28;;;;;;;1.80;1.10;;;;;;;3.85;100.00;102866.38;5111803;28;20052;-87
2022/01/21 06:00:55;;;;;;;2.75;1.10;;;;;;;4.17;100.00;102859.34;5114969;28;20122;-87
2022/01/21 06:03:22;;;;;;;2.78;1.25;;;;;;;4.13;100.00;102852.34;5133304;28;20139;-87
2022/01/21 06:05:51;;;;;;;2.13;1.13;;;;;;;4.13;100.00;102860.13;5122623;28;20242;-87
2022/01/21 06:08:18;;;;;;;2.47;1.10;;;;;;;4.21;100.00;102851.66;5132454;28;20047;-87
2022/01/21 06:10:45;;;;;;;1.92;1.02;;;;;;;4.12;100.00;102852.31;5114527;27;20043;-87
2022/01/21 06:13:17;;;;;;;2.35;1.20;;;;;;;4.19;100.00;102868.03;5119035;27;20039;-87
2022/01/21 06:15:46;;;;;;;2.38;1.10;;;;;;;3.88;100.00;102831.88;5111521;27;20054;-87
2022/01/21 06:18:13;;;;;;;2.83;1.20;;;;;;;3.92;100.00;102818.16;5110807;28;20047;-87
2022/01/21 06:20:39;;;;;;;1.52;1.05;;;;;;;3.66;100.00;102776.94;5123961;27;20039;-87
2022/01/21 06:23:06;;;;;;;2.60;1.10;;;;;;;3.91;100.00;102822.47;5115293;28;20052;-87
2022/01/21 06:25:33;;;;;;;1.80;1.00;;;;;;;3.94;100.00;102819.94;5122925;27;20047;-87
2022/01/21 06:28:00;;;;;;;2.95;1.27;;;;;;;3.88;100.00;102829.28;5106282;28;20048;-87
2022/01/21 06:30:30;;;;;;;2.00;1.20;;;;;;;4.08;100.00;102841.00;5116474;27;20035;-87
2022/01/21 06:32:57;;;;;;;2.30;1.23;;;;;;;3.98;100.00;102828.66;5148613;27;20051;-86
2022/01/21 06:35:24;;;;;;;1.55;1.10;;;;;;;3.78;100.00;102807.47;5136194;27;20047;-87
2022/01/21 06:37:51;;;;;;;1.45;1.08;;;;;;;3.85;100.00;102824.91;5107513;28;20051;-86
2022/01/21 06:40:20;;;;;;;2.47;1.15;;;;;;;3.76;100.00;102825.56;5108337;27;20490;-86
2022/01/21 06:42:47;;;;;;;1.65;0.98;;;;;;;3.76;100.00;102822.97;5149407;27;20062;-86
2022/01/21 06:45:15;;;;;;;2.95;1.20;;;;;;;3.61;100.00;102840.72;5120032;27;20404;-86
2022/01/21 06:47:42;;;;;;;2.28;1.17;;;;;;;3.63;100.00;102826.13;5125165;27;20047;-87
2022/01/21 06:50:09;;;;;;;1.10;1.00;;;;;;;3.67;100.00;102824.47;5117554;27;20043;-87
2022/01/21 06:52:36;;;;;;;3.97;1.10;;;;;;;3.56;100.00;102794.00;5130119;27;20119;-89
2022/01/21 06:55:04;;;;;;;2.30;1.08;;;;;;;3.54;100.00;102810.31;5104416;27;20124;-89
2022/01/21 06:57:34;;;;;;;1.77;1.10;;;;;;;3.21;100.00;102747.38;5126463;27;20104;-88
2022/01/21 07:00:01;;;;;;;3.97;1.63;;;;;;;3.01;100.00;102749.47;5128290;27;20047;-86
2022/01/21 07:02:28;;;;;;;1.63;1.05;;;;;;;3.34;100.00;102786.53;5113870;27;20047;-86
2022/01/21 07:04:54;;;;;;;3.05;1.63;;;;;;;3.63;100.00;102782.09;5129195;27;20688;-86
2022/01/21 07:07:22;;;;;;;2.75;1.10;;;;;;;3.84;100.00;102802.41;5128702;27;20056;-86
2022/01/21 07:09:49;;;;;;;2.42;1.20;;;;;;;4.18;100.00;102836.91;5112017;27;20051;-84
2022/01/21 07:12:16;;;;;;;2.22;1.23;;;;;;;4.01;100.00;102830.47;5114347;27;20052;-86
2022/01/21 07:14:43;;;;;;;2.08;1.20;;;;;;;3.81;100.00;102810.13;5108532;27;20126;-85
2022/01/21 07:17:09;;;;;;;2.40;1.20;;;;;;;3.99;100.00;102822.66;5126701;27;20047;-86
2022/01/21 07:19:36;;;;;;;2.20;1.10;;;;;;;3.86;100.00;102812.81;5123708;27;20058;-86
2022/01/21 07:22:03;;;;;;;1.75;1.00;;;;;;;3.72;100.00;102795.25;5114803;27;20047;-87
2022/01/21 07:24:33;;;;;;;3.38;1.10;;;;;;;3.95;100.00;102828.63;5117584;27;20051;-84
2022/01/21 07:27:03;;;;;;;2.75;1.20;;;;;;;3.87;100.00;102806.81;5108710;27;20552;-85
2022/01/21 07:29:30;;;;;;;3.25;1.20;;;;;;;3.76;100.00;102797.06;5113752;27;20047;-86
2022/01/21 07:31:57;;;;;;;2.17;1.05;;;;;;;3.86;100.00;102811.13;5113025;27;20055;-86
2022/01/21 07:34:26;;;;;;;2.35;1.15;;;;;;;3.72;100.00;102813.38;5112862;27;20073;-86
2022/01/21 07:36:55;;;;;;;2.00;1.10;;;;;;;3.64;100.00;102803.69;5111637;27;20604;-86
2022/01/21 07:39:23;;;;;;;3.30;1.30;;;;;;;3.53;100.00;102818.94;5112041;27;20051;-85
2022/01/21 07:41:50;;;;;;;8.43;1.40;;;;;;;3.66;100.00;102822.72;5113163;27;20051;-85
2022/01/21 07:44:17;;;;;;;3.30;1.30;;;;;;;3.64;100.00;102814.03;5126098;27;20044;-84
2022/01/21 07:46:46;;;;;;;4.90;1.40;;;;;;;3.41;100.00;102789.31;5108636;27;20069;-84
2022/01/21 07:49:14;;;;;;;2.28;1.20;;;;;;;3.55;100.00;102802.59;5127048;27;20047;-85
2022/01/21 07:51:41;;;;;;;3.40;1.38;;;;;;;3.57;100.00;102824.22;5125673;27;20049;-85
2022/01/21 07:54:08;;;;;;;2.38;1.23;;;;;;;3.52;100.00;102812.88;5121498;27;20061;-83
2022/01/21 07:56:35;;;;;;;3.20;1.52;;;;;;;3.53;100.00;102801.69;5130426;27;20043;-85
2022/01/21 07:59:06;;;;;;;2.75;1.50;;;;;;;3.55;100.00;102810.38;5098193;27;20043;-88
2022/01/21 08:01:33;;;;;;;5.93;2.90;;;;;;;3.55;100.00;102806.91;5116945;27;20086;-86
2022/01/21 08:04:01;;;;;;;4.53;1.90;;;;;;;3.46;100.00;102801.50;5115387;27;20461;-85
2022/01/21 08:06:28;;;;;;;5.93;1.50;;;;;;;3.44;100.00;102809.25;5106175;27;20481;-85
2022/01/21 08:08:55;;;;;;;2.45;1.40;;;;;;;3.52;100.00;102793.88;5115668;27;20047;-85
2022/01/21 08:11:22;;;;;;;3.97;1.48;;;;;;;3.64;100.00;102795.91;5134080;27;20656;-85
2022/01/21 08:13:50;;;;;;;4.78;1.45;;;;;;;3.64;100.00;102795.91;5135421;27;20536;-85
2022/01/21 08:16:17;;;;;;;6.32;1.60;;;;;;;3.64;100.00;102783.81;5116731;27;20058;-86
2022/01/21 08:18:45;;;;;;;7.25;3.55;;;;;;;3.49;100.00;102747.19;5135427;27;20086;-85
2022/01/21 08:21:18;;;;;;;3.38;1.75;;;;;;;3.60;100.00;102758.69;5134047;27;20490;-88
2022/01/21 08:23:50;;;;;;;3.28;1.65;;;;;;;3.96;100.00;102771.59;5115757;27;20047;-88
2022/01/21 08:26:23;;;;;;;3.83;1.60;;;;;;;3.91;100.00;102783.59;5115990;27;20054;-86
2022/01/21 08:28:51;;;;;;;6.43;1.73;;;;;;;3.74;100.00;102779.75;5124006;27;20057;-85
2022/01/21 08:31:19;;;;;;;2.95;1.42;;;;;;;3.84;100.00;102783.41;5127585;27;20396;-86
2022/01/21 08:33:46;;;;;;;4.60;1.70;;;;;;;3.75;100.00;102792.75;5115968;27;20046;-86
2022/01/21 08:36:13;;;;;;;4.97;1.60;;;;;;;3.67;100.00;102785.63;5115447;27;20054;-88
2022/01/21 08:38:40;;;;;;;3.08;1.52;;;;;;;3.66;100.00;102782.13;5098070;27;20047;-90
2022/01/21 08:41:07;;;;;;;3.60;1.45;;;;;;;3.49;100.00;102767.91;5123788;27;20039;-89
2022/01/21 08:43:34;;;;;;;4.50;1.42;;;;;;;3.52;100.00;102801.66;5110745;28;20048;-90
2022/01/21 08:46:01;;;;;;;4.25;1.70;;;;;;;3.44;100.00;102780.75;5132265;27;20504;-89
2022/01/21 08:48:28;;;;;;;6.13;1.83;;;;;;;3.67;100.00;102791.66;5134620;27;20100;-89
2022/01/21 08:51:00;;;;;;;4.10;1.60;;;;;;;3.85;100.00;102795.53;5122849;27;20044;-90
2022/01/21 08:53:36;;;;;;;4.40;2.05;;;;;;;3.75;100.00;102787.56;5112235;27;20043;-89
2022/01/21 08:56:13;;;;;;;6.63;1.80;;;;;;;3.71;100.00;102767.56;5110955;27;20055;-89
2022/01/21 08:58:42;;;;;;;5.07;2.00;;;;;;;3.78;100.00;102787.59;5132279;27;20053;-89
2022/01/21 09:01:10;;;;;;;4.90;1.90;;;;;;;3.72;100.00;102763.25;5108436;28;20044;-91
2022/01/21 09:03:39;;;;;;;4.22;1.67;;;;;;;3.56;100.00;102760.31;5121843;27;20055;-85
2022/01/21 09:06:07;;;;;;;6.25;2.20;;;;;;;3.86;100.00;102795.59;5111415;27;20053;-85
2022/01/21 09:08:34;;;;;;;4.72;1.70;;;;;;;3.90;100.00;102778.38;5098233;28;20055;-84
2022/01/21 09:11:04;;;;;;;5.72;1.70;;;;;;;3.95;100.00;102788.00;5108327;27;20396;-85
2022/01/21 09:13:34;;;;;;;4.22;1.40;;;;;;;4.03;100.00;102761.38;5110019;27;20049;-84
2022/01/21 09:16:01;;;;;;;6.65;2.85;;;;;;;4.17;100.00;102766.00;5124284;27;20047;-85
2022/01/21 09:21:33;;;;;;;4.15;1.65;;;;;;;4.26;100.00;102782.63;5118804;27;20038;-84
2022/01/21 09:24:04;;;;;;;5.03;1.80;;;;;;;4.28;100.00;102778.34;5132443;27;20528;-84
2022/01/21 09:26:31;;;;;;;3.80;1.70;;;;;;;4.23;100.00;102762.66;5107261;28;20055;-83
2022/01/21 09:28:59;;;;;;;4.95;2.03;;;;;;;4.37;100.00;102792.38;5095758;28;20051;-87
2022/01/21 09:31:26;;;;;;;5.53;1.67;;;;;;;4.49;100.00;102814.22;5112256;28;20097;-87
2022/01/21 09:34:14;;;;;;;8.00;2.03;;;;;;;4.28;100.00;102758.44;5125812;28;20058;-87
2022/01/21 09:36:42;;;;;;;4.32;1.88;;;;;;;3.98;100.00;102719.78;5114619;28;20058;-87
2022/01/21 09:39:10;;;;;;;5.93;2.05;;;;;;;4.14;100.00;102734.84;5122017;28;20049;-88
2022/01/21 09:41:37;;;;;;;4.97;2.00;;;;;;;4.58;100.00;102788.47;5111081;28;20051;-87
2022/01/21 09:44:05;;;;;;;5.55;2.17;;;;;;;4.33;100.00;102730.91;5114756;28;20215;-86
2022/01/21 09:46:35;;;;;;;7.00;2.17;;;;;;;4.78;100.00;102787.97;5123125;27;20049;-86
2022/01/21 09:52:05;;;;;;;8.30;2.47;;;;;;;4.95;100.00;102796.97;5127032;27;20048;-85
2022/01/21 09:54:45;;;;;;;4.60;1.65;;;;;;;5.03;100.00;102772.03;5101812;27;20048;-86
2022/01/21 09:57:20;;;;;;;5.40;1.90;;;;;;;5.19;100.00;102785.28;5112706;27;20088;-87
2022/01/21 09:59:48;;;;;;;5.35;1.90;;;;;;;5.21;100.00;102770.63;5115896;27;20061;-86
2022/01/21 10:02:18;;;;;;;4.72;2.22;;;;;;;5.38;100.00;102791.66;5122941;27;20044;-84
2022/01/21 10:04:49;;;;;;;10.32;4.25;;;;;;;5.43;100.00;102797.81;5122559;27;20135;-85
2022/01/21 10:07:19;;;;;;;13.45;6.22;;;;;;;5.31;100.00;102767.31;5117010;27;20054;-85
2022/01/21 10:09:47;;;;;;;11.05;3.83;;;;;;;5.47;100.00;102777.13;5112694;27;20138;-85
2022/01/21 10:12:15;;;;;;;8.77;3.83;;;;;;;5.42;100.00;102752.78;5117140;27;20616;-85
2022/01/21 10:14:42;;;;;;;9.27;3.88;;;;;;;5.67;100.00;102766.16;5125160;27;20540;-83
2022/01/21 10:17:12;;;;;;;8.05;3.25;;;;;;;5.85;100.00;102743.03;5129523;27;20050;-85
2022/01/21 10:19:40;;;;;;;9.40;3.80;;;;;;;5.81;100.00;102753.38;5122704;27;20063;-85
2022/01/21 10:22:11;;;;;;;9.05;4.10;;;;;;;5.92;100.00;102763.94;5128911;27;20047;-85
2022/01/21 10:25:00;;;;;;;9.70;3.80;;;;;;;5.88;100.00;102755.22;5120267;27;20056;-85
2022/01/21 10:27:33;;;;;;;10.32;3.45;;;;;;;6.03;100.00;102751.97;5114850;27;20066;-85
2022/01/21 10:30:00;;;;;;;9.88;3.47;;;;;;;6.16;100.00;102753.91;5114973;27;20051;-85
2022/01/21 10:32:36;;;;;;;7.78;2.85;;;;;;;5.86;100.00;102736.09;5117424;27;20043;-85
2022/01/21 10:35:26;;;;;;;10.63;4.97;;;;;;;5.91;100.00;102755.22;5107202;27;20708;-82
2022/01/21 10:37:56;;;;;;;;;;;;;;;6.24;100.00;102761.78;5117265;27;20408;-84
2022/01/21 10:40:33;;;;;;;11.60;4.65;;;;;;;5.96;100.00;102722.41;5133740;27;19923;-85
2022/01/21 10:43:14;;;;;;;8.02;3.38;;;;;;;6.38;100.00;102744.63;5124922;27;20440;-84
2022/01/21 10:46:07;;;;;;;6.68;2.92;;;;;;;6.74;100.00;102784.06;5129674;27;20051;-84
2022/01/21 10:49:10;;;;;;;;;;;;;;;6.99;100.00;102780.00;5096855;27;20051;-85
2022/01/21 10:51:40;;;;;;;10.52;4.72;;;;;;;6.45;100.00;102740.38;5031216;28;19925;-85
2022/01/21 10:54:28;;;;;;;8.77;3.38;;;;;;;6.98;100.00;102788.69;5113266;27;20047;-85
2022/01/21 10:57:16;;;;;;;7.45;2.63;;;;;;;7.15;100.00;102778.41;5133146;27;20461;-85
2022/01/21 10:59:57;;;;;;;114.28;15.57;;;;;;;7.27;100.00;102782.88;5122342;27;20481;-85
2022/01/21 11:02:34;;;;;;;10.45;3.22;;;;;;;7.28;100.00;102775.06;5126928;27;20047;-85
2022/01/21 11:05:08;;;;;;;26.58;5.72;;;;;;;7.51;100.00;102777.00;5116764;27;20082;-85
2022/01/21 11:07:55;;;;;;;81.72;10.98;;;;;;;7.77;100.00;102779.78;5116722;27;20085;-85
2022/01/21 11:10:35;;;;;;;11.40;3.60;;;;;;;7.88;100.00;102767.69;5101928;27;20047;-86
2022/01/21 11:13:11;;;;;;;19.45;5.43;;;;;;;7.97;100.00;102766.88;5117294;27;20050;-85
2022/01/21 11:15:39;;;;;;;15.13;4.20;;;;;;;8.15;100.00;102761.75;5112881;27;20047;-86
2022/01/21 11:18:09;;;;;;;173.68;19.30;;;;;;;8.21;100.00;102737.41;5112527;28;20055;-86
2022/01/21 11:20:40;;;;;;;22.20;4.72;;;;;;;8.36;100.00;102752.28;5116066;27;20043;-86
2022/01/21 11:23:11;;;;;;;8.82;2.85;;;;;;;8.58;100.00;102771.50;5108020;27;20054;-86
2022/01/21 11:26:00;;;;;;;7.43;2.28;;;;;;;8.64;100.00;102740.22;5115955;27;20058;-85
2022/01/21 11:28:37;;;;;;;5.57;2.20;;;;;;;8.85;100.00;102748.94;5116792;27;20043;-86
2022/01/21 11:31:05;;;;;;;11.85;2.53;;;;;;;9.02;100.00;102741.16;5115643;27;20050;-85
2022/01/21 11:33:32;;;;;;;12.48;2.28;;;;;;;9.16;100.00;102738.53;5126694;27;20043;-85
2022/01/21 11:36:00;;;;;;;19.33;4.40;;;;;;;9.23;100.00;102728.09;5134266;27;20055;-85
2022/01/21 11:38:29;;;;;;;17.45;2.85;;;;;;;9.32;100.00;102724.59;5133547;27;20415;-85
2022/01/21 11:40:56;;;;;;;7.55;2.03;;;;;;;9.27;100.00;102714.13;5112795;27;20082;-86
2022/01/21 11:43:24;;;;;;;10.05;2.45;;;;;;;9.45;100.00;102712.38;5116006;27;20049;-85
2022/01/21 11:48:50;;;;;;;7.78;3.20;;;;;;;9.76;100.00;102723.66;5127868;27;20430;-84
2022/01/21 11:51:39;;;;;;;7.53;3.10;;;;;;;9.94;100.00;102725.34;5114317;27;20044;-84
2022/01/21 11:54:10;;;;;;;9.07;3.72;;;;;;;9.86;100.00;102735.84;5108545;27;20496;-83
2022/01/21 11:56:57;;;;;;;8.45;3.47;;;;;;;9.91;100.00;102730.59;5114823;27;20061;-84
2022/01/21 11:59:55;;;;;;;8.10;2.40;;;;;;;10.04;100.00;102728.81;5115634;27;20430;-84
2022/01/21 12:02:27;;;;;;;6.45;1.77;;;;;;;10.15;100.00;102734.88;5111642;27;20473;-84
2022/01/21 12:05:01;;;;;;;5.90;2.15;;;;;;;10.22;100.00;102718.25;5115374;27;20042;-84
2022/01/21 12:07:41;;;;;;;5.30;1.70;;;;;;;10.40;100.00;102719.09;5106153;28;20048;-84
2022/01/21 12:10:13;;;;;;;8.00;1.63;;;;;;;10.40;100.00;102716.47;5108056;27;20043;-84
2022/01/21 12:15:46;;;;;;;4.35;2.13;;;;;;;10.64;100.00;102713.72;5132753;27;20775;-82
2022/01/21 12:21:34;;;;;;;2.63;1.23;;;;;;;10.83;100.00;102711.81;5124309;27;20066;-85
2022/01/21 12:24:02;;;;;;;3.83;1.52;;;;;;;10.68;100.00;102696.22;5110423;28;20066;-85
2022/01/21 12:26:31;;;;;;;5.63;1.52;;;;;;;10.70;100.00;102685.75;5114624;27;20471;-85
2022/01/21 12:28:58;;;;;;;3.33;1.30;;;;;;;10.99;100.00;102696.84;5132906;27;20047;-85
2022/01/21 12:31:41;;;;;;;1.85;0.98;;;;;;;11.04;100.00;102690.72;5121023;27;20039;-85
2022/01/21 12:34:12;;;;;;;6.38;1.42;;;;;;;10.94;100.00;102690.78;5112447;27;20534;-84
2022/01/21 12:36:46;;;;;;;3.65;1.10;;;;;;;10.85;100.00;102697.84;5127473;27;20051;-82
2022/01/21 12:39:48;;;;;;;3.50;1.30;;;;;;;11.17;100.00;102694.97;5110131;27;20052;-83
2022/01/21 12:42:21;;;;;;;3.05;1.20;;;;;;;11.19;100.00;102694.06;5112498;27;20043;-85